Time;durP1;ratioP1;P1;durP2;ratioP2;P2;SDS_P1;SDS_P2;PMS_P1;PMS_P2;Temp;Humidity;BMP_temperature;BMP_pressure;BME280_temperature;BME280_humidity;BME280_pressure;Samples;Min_cycle;Max_cycle;Signal;HPM_P1;HPM_P2
2022/03/15 00:01:08;;;;;;;22.33;16.97;;;;;;;5.65;89.53;102869.91;4971861;28;20203;-74
2022/03/15 00:03:33;;;;;;;22.87;15.73;;;;;;;5.54;89.11;102871.69;4976561;28;20216;-74
2022/03/15 00:05:59;;;;;;;21.40;15.50;;;;;;;5.52;88.96;102869.81;4985541;28;20247;-75
2022/03/15 00:08:26;;;;;;;22.77;15.57;;;;;;;5.59;88.95;102870.38;4974131;28;20279;-74
2022/03/15 00:10:57;;;;;;;25.40;16.73;;;;;;;5.77;89.03;102874.22;4983908;28;20211;-74
2022/03/15 00:13:22;;;;;;;32.67;17.77;;;;;;;5.80;88.92;102871.91;4970497;28;20697;-74
2022/03/15 00:15:48;;;;;;;34.77;18.17;;;;;;;5.74;90.35;102879.06;4973319;28;20268;-74
2022/03/15 00:18:13;;;;;;;37.50;19.33;;;;;;;5.75;91.82;102879.97;4972673;28;20717;-74
2022/03/15 00:20:39;;;;;;;38.30;21.37;;;;;;;5.85;93.08;102874.78;4982481;28;20186;-74
2022/03/15 00:23:04;;;;;;;52.27;23.20;;;;;;;5.92;93.65;102880.41;4990871;28;20566;-74
2022/03/15 00:25:30;;;;;;;51.33;27.27;;;;;;;5.99;95.30;102874.09;4991066;28;20601;-74
2022/03/15 00:27:55;;;;;;;66.40;30.20;;;;;;;6.02;95.98;102875.19;4990893;28;20196;-74
2022/03/15 00:30:22;;;;;;;68.77;34.53;;;;;;;6.14;97.14;102877.72;4971576;28;20682;-74
2022/03/15 00:32:51;;;;;;;81.43;36.97;;;;;;;6.22;98.20;102881.66;4989021;28;20197;-74
2022/03/15 00:35:18;;;;;;;102.90;42.37;;;;;;;6.26;98.53;102881.97;4984806;28;20212;-74
2022/03/15 00:37:48;;;;;;;110.53;46.93;;;;;;;6.32;99.75;102884.97;4980763;28;20285;-75
2022/03/15 00:40:15;;;;;;;112.63;49.70;;;;;;;6.33;99.98;102884.19;4990865;28;20180;-74
2022/03/15 00:42:44;;;;;;;120.27;52.13;;;;;;;6.38;100.00;102875.19;4977719;28;20224;-74
2022/03/15 00:45:11;;;;;;;131.17;54.67;;;;;;;6.44;100.00;102867.97;4982524;28;20597;-73
2022/03/15 00:47:36;;;;;;;134.33;55.70;;;;;;;6.48;100.00;102872.50;4970650;28;20250;-74
2022/03/15 00:50:02;;;;;;;134.23;55.80;;;;;;;6.52;100.00;102874.47;4990193;28;20184;-73
2022/03/15 00:52:27;;;;;;;139.13;58.73;;;;;;;6.49;100.00;102866.63;4990170;28;20661;-74
2022/03/15 00:54:52;;;;;;;135.63;56.57;;;;;;;6.53;100.00;102865.16;4984101;28;20217;-74
2022/03/15 00:57:18;;;;;;;143.00;59.97;;;;;;;6.60;100.00;102865.72;4970986;28;20259;-73
2022/03/15 00:59:45;;;;;;;133.73;57.20;;;;;;;6.61;100.00;102872.56;4969884;28;20626;-73
2022/03/15 01:02:10;;;;;;;141.20;57.10;;;;;;;6.62;100.00;102871.78;4975678;28;20299;-74
2022/03/15 01:04:36;;;;;;;132.00;56.93;;;;;;;6.63;100.00;102860.81;4969548;28;20292;-74
2022/03/15 01:07:02;;;;;;;130.23;57.50;;;;;;;6.69;100.00;102862.88;4970939;28;20279;-74
2022/03/15 01:09:27;;;;;;;129.90;56.53;;;;;;;6.70;100.00;102864.66;4970596;28;20278;-74
2022/03/15 01:11:52;;;;;;;125.73;55.70;;;;;;;6.72;100.00;102873.28;4978486;28;20196;-74
2022/03/15 01:14:18;;;;;;;126.20;54.43;;;;;;;6.72;100.00;102876.69;4977325;28;20287;-74
2022/03/15 01:16:44;;;;;;;133.60;55.47;;;;;;;6.73;100.00;102875.03;4969430;28;20180;-74
2022/03/15 01:19:10;;;;;;;123.17;54.63;;;;;;;6.73;100.00;102873.38;4975620;28;20188;-74
2022/03/15 01:21:38;;;;;;;129.73;54.70;;;;;;;6.77;100.00;102871.94;4973101;28;20216;-74
2022/03/15 01:24:06;;;;;;;119.53;56.27;;;;;;;6.78;100.00;102860.97;4985313;28;20208;-74
2022/03/15 01:26:33;;;;;;;105.93;52.70;;;;;;;6.79;100.00;102857.63;4983528;28;20608;-74
2022/03/15 01:28:59;;;;;;;103.20;51.50;;;;;;;6.81;100.00;102867.13;4976534;28;20196;-74
2022/03/15 01:31:25;;;;;;;114.03;53.10;;;;;;;6.83;100.00;102867.25;4973417;28;20188;-74
2022/03/15 01:33:50;;;;;;;105.20;51.57;;;;;;;6.86;100.00;102862.38;4972542;28;20577;-74
2022/03/15 01:36:15;;;;;;;98.70;49.50;;;;;;;6.87;100.00;102864.13;4970529;28;20188;-74
2022/03/15 01:38:41;;;;;;;104.20;49.60;;;;;;;6.89;100.00;102878.72;4981596;28;20190;-74
2022/03/15 01:41:06;;;;;;;95.00;48.17;;;;;;;6.90;100.00;102866.84;4974617;28;20262;-74
2022/03/15 01:43:33;;;;;;;94.23;48.03;;;;;;;6.92;100.00;102871.28;4977333;28;20592;-73
2022/03/15 01:45:59;;;;;;;98.87;48.70;;;;;;;6.92;100.00;102868.75;4977340;28;20292;-74
2022/03/15 01:48:24;;;;;;;82.13;45.13;;;;;;;6.93;100.00;102874.69;4977068;28;20705;-75
2022/03/15 01:50:50;;;;;;;96.30;43.37;;;;;;;6.96;100.00;102867.28;4976730;28;20299;-74
2022/03/15 01:53:15;;;;;;;82.60;43.20;;;;;;;6.96;100.00;102870.69;4983721;28;20191;-75
2022/03/15 01:55:41;;;;;;;74.83;42.10;;;;;;;6.95;100.00;102873.16;4988575;28;20195;-74
2022/03/15 01:58:06;;;;;;;66.80;39.10;;;;;;;6.94;99.86;102873.91;4986757;28;20560;-74
2022/03/15 02:00:32;;;;;;;70.47;37.50;;;;;;;6.93;100.00;102874.69;4972294;28;20278;-74
2022/03/15 02:02:58;;;;;;;66.83;38.40;;;;;;;6.91;99.58;102874.59;4988442;28;20222;-74
2022/03/15 02:05:23;;;;;;;62.50;37.00;;;;;;;6.92;99.54;102878.94;4992327;28;20219;-74
2022/03/15 02:07:49;;;;;;;62.90;35.53;;;;;;;6.92;98.55;102881.47;4993400;28;20176;-74
2022/03/15 02:10:14;;;;;;;59.30;34.67;;;;;;;6.91;99.14;102884.78;4976179;28;20199;-74
2022/03/15 02:12:39;;;;;;;60.07;36.17;;;;;;;6.90;98.65;102882.13;4993605;28;20287;-74
2022/03/15 02:15:06;;;;;;;59.77;34.87;;;;;;;6.91;98.33;102891.56;4974826;28;20236;-74
2022/03/15 02:17:32;;;;;;;63.83;35.30;;;;;;;6.88;97.89;102887.16;4975841;28;20192;-74
2022/03/15 02:19:58;;;;;;;62.73;34.37;;;;;;;6.84;97.54;102892.81;4982328;28;20689;-74
2022/03/15 02:22:25;;;;;;;59.97;35.23;;;;;;;6.85;97.82;102892.00;4973783;28;20219;-73
2022/03/15 02:24:51;;;;;;;53.90;32.10;;;;;;;6.81;97.36;102889.19;4988101;28;20219;-73
2022/03/15 02:27:19;;;;;;;52.93;31.83;;;;;;;6.82;97.49;102890.94;4973851;28;20231;-73
2022/03/15 02:29:45;;;;;;;57.80;32.77;;;;;;;6.79;97.78;102885.63;4980177;28;20661;-73
2022/03/15 02:32:11;;;;;;;53.07;32.13;;;;;;;6.79;96.68;102891.63;4972213;28;20193;-74
2022/03/15 02:34:37;;;;;;;52.97;32.20;;;;;;;6.75;96.96;102891.28;4987103;28;20200;-74
2022/03/15 02:37:02;;;;;;;55.40;31.37;;;;;;;6.75;96.78;102892.19;4991765;28;20227;-74
2022/03/15 02:39:27;;;;;;;53.03;30.47;;;;;;;6.73;96.53;102888.63;4992916;28;20275;-73
2022/03/15 02:41:53;;;;;;;55.73;32.20;;;;;;;6.73;97.15;102885.22;4992954;28;20310;-74
2022/03/15 02:44:18;;;;;;;53.80;32.00;;;;;;;6.72;96.54;102876.69;4983480;28;20224;-74
2022/03/15 02:46:48;;;;;;;52.93;31.03;;;;;;;6.73;97.26;102873.38;4973476;28;20200;-73
2022/03/15 02:49:13;;;;;;;48.67;29.57;;;;;;;6.70;96.77;102875.72;4981978;28;20412;-74
2022/03/15 02:51:39;;;;;;;56.73;30.77;;;;;;;6.71;96.46;102874.94;4985760;28;20184;-74
2022/03/15 02:54:08;;;;;;;52.43;30.33;;;;;;;6.71;96.44;102881.69;4987758;28;20214;-74
2022/03/15 02:56:36;;;;;;;49.13;30.40;;;;;;;6.69;96.72;102889.25;4974541;28;20287;-74
2022/03/15 02:59:02;;;;;;;57.87;32.30;;;;;;;6.71;96.51;102889.31;4983685;28;20206;-74
2022/03/15 03:01:27;;;;;;;51.10;31.03;;;;;;;6.71;96.19;102889.31;4992824;28;20188;-74
2022/03/15 03:03:53;;;;;;;51.40;31.80;;;;;;;6.71;96.33;102885.13;4992664;28;20211;-74
2022/03/15 03:06:18;;;;;;;54.13;32.27;;;;;;;6.71;96.72;102886.78;4992279;28;20225;-74
2022/03/15 03:08:44;;;;;;;54.13;32.83;;;;;;;6.70;96.71;102885.91;4992294;28;20286;-74
2022/03/15 03:11:10;;;;;;;55.47;32.33;;;;;;;6.73;96.95;102877.59;4992449;28;20246;-74
2022/03/15 03:13:37;;;;;;;58.07;33.03;;;;;;;6.72;96.36;102873.28;4986759;28;20773;-74
2022/03/15 03:16:03;;;;;;;51.50;32.43;;;;;;;6.73;96.03;102875.91;4972735;28;20188;-74
2022/03/15 03:18:32;;;;;;;57.37;33.60;;;;;;;6.74;96.01;102881.91;4976505;28;20547;-74
2022/03/15 03:21:01;;;;;;;60.80;32.20;;;;;;;6.73;96.53;102875.91;4989352;28;20181;-74
2022/03/15 03:23:26;;;;;;;56.00;33.63;;;;;;;6.74;96.54;102882.78;4972625;28;20212;-74
2022/03/15 03:25:52;;;;;;;59.87;34.80;;;;;;;6.72;97.03;102884.34;4972677;28;20189;-74
2022/03/15 03:28:17;;;;;;;59.40;34.60;;;;;;;6.75;96.49;102883.66;4972527;28;20169;-74
2022/03/15 03:30:47;;;;;;;60.83;34.90;;;;;;;6.71;96.84;102881.69;4990242;28;20245;-74
2022/03/15 03:33:17;;;;;;;73.00;36.93;;;;;;;6.69;97.55;102885.78;4978230;28;20263;-74
2022/03/15 03:35:43;;;;;;;70.33;35.87;;;;;;;6.65;97.30;102879.63;4981391;28;20330;-74
2022/03/15 03:38:09;;;;;;;73.90;36.03;;;;;;;6.60;98.02;102880.09;4991482;28;20204;-74
2022/03/15 03:40:35;;;;;;;75.23;35.70;;;;;;;6.53;98.52;102888.97;4987282;28;20673;-74
2022/03/15 03:43:00;;;;;;;74.17;36.60;;;;;;;6.46;99.07;102893.53;4972240;28;20223;-74
2022/03/15 03:45:28;;;;;;;82.93;35.60;;;;;;;6.35;100.00;102889.38;4979383;28;20765;-73
2022/03/15 03:47:53;;;;;;;64.80;35.77;;;;;;;6.40;99.81;102885.50;4982814;28;20223;-74
2022/03/15 03:50:19;;;;;;;66.17;37.03;;;;;;;6.27;100.00;102881.19;4990769;28;20203;-73
2022/03/15 03:52:45;;;;;;;54.40;32.43;;;;;;;6.24;99.80;102888.63;4986701;28;20196;-73
2022/03/15 03:55:10;;;;;;;56.50;31.30;;;;;;;6.15;99.76;102894.72;4972170;28;20211;-73
2022/03/15 03:57:36;;;;;;;55.87;30.20;;;;;;;6.19;99.10;102895.06;4972007;28;20188;-73
2022/03/15 04:00:03;;;;;;;50.30;29.10;;;;;;;6.23;98.85;102894.50;4972210;28;20173;-73
2022/03/15 04:02:38;;;;;;;53.97;30.37;;;;;;;6.22;98.71;102892.72;4980888;28;20587;-74
2022/03/15 04:05:04;;;;;;;52.13;30.17;;;;;;;6.23;98.10;102901.25;4971981;28;20220;-74
2022/03/15 04:07:29;;;;;;;50.97;31.93;;;;;;;6.24;98.30;102895.38;4971842;28;20189;-73
2022/03/15 04:09:55;;;;;;;54.73;30.83;;;;;;;6.24;98.03;102906.44;4984192;28;20192;-74
2022/03/15 04:12:23;;;;;;;53.43;29.53;;;;;;;6.16;98.57;102901.56;4973459;28;20604;-74
2022/03/15 04:14:49;;;;;;;54.93;29.63;;;;;;;6.05;98.42;102905.94;4971859;28;20209;-73
2022/03/15 04:17:15;;;;;;;64.93;30.47;;;;;;;5.98;99.39;102907.94;4970626;28;20202;-74
2022/03/15 04:19:40;;;;;;;73.10;32.80;;;;;;;5.94;99.31;102900.88;4985829;28;20247;-74
2022/03/15 04:22:06;;;;;;;64.83;32.17;;;;;;;5.87;99.56;102899.53;4977958;28;20215;-73
2022/03/15 04:24:32;;;;;;;55.10;29.33;;;;;;;5.78;99.48;102905.59;4991059;28;20200;-73
2022/03/15 04:26:59;;;;;;;53.87;28.50;;;;;;;5.79;99.48;102898.06;4990531;28;20198;-73
2022/03/15 04:29:25;;;;;;;44.67;25.97;;;;;;;5.85;99.44;102901.06;4990499;28;20261;-73
2022/03/15 04:31:51;;;;;;;46.37;27.93;;;;;;;5.86;98.79;102892.69;4991051;28;20642;-74
2022/03/15 04:34:17;;;;;;;55.63;28.40;;;;;;;5.88;98.15;102898.75;4978772;28;20218;-74
2022/03/15 04:36:44;;;;;;;56.20;29.70;;;;;;;5.83;98.19;102895.00;4971507;28;20193;-74
2022/03/15 04:39:09;;;;;;;66.57;27.90;;;;;;;5.76;98.43;102892.75;4971303;28;20212;-73
2022/03/15 04:41:34;;;;;;;83.07;29.80;;;;;;;5.72;98.71;102892.44;4971360;28;20288;-74
2022/03/15 04:44:00;;;;;;;71.83;28.03;;;;;;;5.61;98.60;102900.97;4971650;28;20644;-73
2022/03/15 04:46:25;;;;;;;114.27;31.33;;;;;;;5.64;98.98;102894.44;4973226;28;20208;-74
2022/03/15 04:48:51;;;;;;;98.40;30.73;;;;;;;5.62;99.26;102895.09;4970770;28;20228;-73
2022/03/15 04:51:17;;;;;;;86.83;30.23;;;;;;;5.63;99.33;102892.69;4987276;28;20287;-74
2022/03/15 04:53:42;;;;;;;55.83;30.17;;;;;;;5.63;99.28;102897.78;4977607;28;20234;-74
2022/03/15 04:56:08;;;;;;;78.50;31.10;;;;;;;5.68;99.18;102898.09;4978992;28;20594;-74
2022/03/15 04:58:33;;;;;;;93.83;33.67;;;;;;;5.64;99.25;102889.38;4976652;28;20616;-73
2022/03/15 05:00:58;;;;;;;83.20;33.50;;;;;;;5.63;99.86;102891.78;4990676;28;20201;-73
2022/03/15 05:03:24;;;;;;;99.57;33.10;;;;;;;5.60;99.94;102889.03;4988676;28;20215;-74
2022/03/15 05:05:49;;;;;;;67.60;32.03;;;;;;;5.63;99.87;102890.16;4974622;28;20188;-73
2022/03/15 05:08:15;;;;;;;113.37;35.50;;;;;;;5.61;100.00;102878.09;4974671;28;20688;-73
2022/03/15 05:13:24;;;;;;;105.47;34.47;;;;;;;5.49;100.00;102887.38;4990592;28;20234;-74
2022/03/15 05:15:50;;;;;;;85.70;34.60;;;;;;;5.40;100.00;102882.53;4989148;28;20191;-74
2022/03/15 05:18:18;;;;;;;95.80;34.37;;;;;;;5.28;100.00;102871.47;4972488;28;20537;-73
2022/03/15 05:20:44;;;;;;;83.10;34.90;;;;;;;5.33;100.00;102872.69;4970961;28;20199;-76
2022/03/15 05:23:09;;;;;;;128.13;37.33;;;;;;;5.33;100.00;102871.78;4977393;28;20314;-73
2022/03/15 05:25:34;;;;;;;159.30;41.37;;;;;;;5.30;100.00;102869.91;4972132;28;20266;-74
2022/03/15 05:28:00;;;;;;;112.10;42.20;;;;;;;5.30;100.00;102871.56;4970774;28;20203;-74
2022/03/15 05:30:25;;;;;;;176.53;44.07;;;;;;;5.14;100.00;102876.28;4970920;28;20193;-74
2022/03/15 05:32:51;;;;;;;142.93;42.47;;;;;;;5.03;100.00;102880.59;4970693;28;20188;-73
2022/03/15 05:35:16;;;;;;;140.53;42.87;;;;;;;5.13;100.00;102874.53;4970692;28;20208;-74
2022/03/15 05:37:42;;;;;;;159.67;43.60;;;;;;;5.11;100.00;102876.09;4970761;28;20729;-74
2022/03/15 05:40:09;;;;;;;143.53;44.83;;;;;;;5.10;100.00;102875.19;4973363;28;20605;-74
2022/03/15 05:42:35;;;;;;;115.80;40.70;;;;;;;5.00;100.00;102876.94;4973335;28;20272;-73
2022/03/15 05:45:01;;;;;;;102.17;41.80;;;;;;;5.15;100.00;102878.94;4974619;28;20207;-74
2022/03/15 05:47:26;;;;;;;99.60;40.27;;;;;;;5.10;100.00;102886.97;4974682;28;20192;-74
2022/03/15 05:49:51;;;;;;;132.00;43.03;;;;;;;5.04;100.00;102886.53;4993735;28;20198;-74
2022/03/15 05:52:16;;;;;;;130.00;40.70;;;;;;;5.01;100.00;102889.75;4992614;28;20191;-74
2022/03/15 05:54:42;;;;;;;115.33;40.60;;;;;;;5.02;100.00;102890.63;4992500;28;20207;-74
2022/03/15 05:57:07;;;;;;;145.47;41.43;;;;;;;4.94;100.00;102894.25;4993878;28;20192;-74
2022/03/15 05:59:33;;;;;;;119.80;44.50;;;;;;;4.91;100.00;102896.53;4993510;28;20238;-73
2022/03/15 06:01:58;;;;;;;142.53;45.67;;;;;;;4.83;100.00;102898.53;4992227;28;20207;-74
2022/03/15 06:04:25;;;;;;;131.53;47.07;;;;;;;4.86;100.00;102893.69;4993762;28;20218;-74
2022/03/15 06:06:51;;;;;;;157.73;46.90;;;;;;;4.79;100.00;102898.19;4992497;28;20199;-74
2022/03/15 06:09:17;;;;;;;124.10;44.63;;;;;;;4.78;100.00;102894.75;4993744;28;20188;-74
2022/03/15 06:11:42;;;;;;;114.27;43.23;;;;;;;4.75;100.00;102894.50;4993739;28;20190;-75
2022/03/15 06:14:08;;;;;;;102.73;42.20;;;;;;;4.76;100.00;102892.88;4993588;28;20204;-73
2022/03/15 06:16:33;;;;;;;132.07;44.07;;;;;;;4.75;100.00;102891.97;4992215;28;20684;-74
2022/03/15 06:18:59;;;;;;;128.80;43.97;;;;;;;4.70;100.00;102895.81;4993447;28;20549;-74
2022/03/15 06:21:24;;;;;;;138.47;45.33;;;;;;;4.76;100.00;102891.22;4993485;28;20195;-74
2022/03/15 06:23:49;;;;;;;138.40;45.10;;;;;;;4.75;100.00;102891.97;4993509;28;20210;-74
2022/03/15 06:26:18;;;;;;;137.83;46.30;;;;;;;4.75;100.00;102889.44;4993571;28;20196;-74
2022/03/15 06:28:43;;;;;;;147.70;48.33;;;;;;;4.85;100.00;102889.38;4993416;28;20536;-74
2022/03/15 06:31:09;;;;;;;160.30;48.40;;;;;;;4.90;100.00;102885.53;4992033;28;20199;-74
2022/03/15 06:33:35;;;;;;;142.30;47.33;;;;;;;4.88;100.00;102881.13;4991944;28;20211;-74
2022/03/15 06:36:00;;;;;;;132.80;49.13;;;;;;;4.99;100.00;102883.69;4993104;28;20195;-74
2022/03/15 06:38:26;;;;;;;185.23;50.73;;;;;;;5.05;100.00;102888.31;4988428;28;20327;-74
2022/03/15 06:40:52;;;;;;;95.87;43.33;;;;;;;5.10;100.00;102879.38;4973616;28;20274;-74
2022/03/15 06:43:19;;;;;;;110.60;43.63;;;;;;;5.13;100.00;102885.59;4973451;28;20208;-74
2022/03/15 06:45:44;;;;;;;105.63;43.47;;;;;;;5.21;100.00;102888.69;4972137;28;20718;-75
2022/03/15 06:48:10;;;;;;;94.33;42.17;;;;;;;5.24;100.00;102884.69;4973445;28;20389;-75
2022/03/15 06:50:36;;;;;;;99.27;42.60;;;;;;;5.28;100.00;102890.88;4971270;28;20768;-74
2022/03/15 06:53:02;;;;;;;99.50;41.83;;;;;;;5.24;100.00;102881.25;4977212;28;20196;-74
2022/03/15 06:55:29;;;;;;;102.63;38.63;;;;;;;5.30;100.00;102881.75;4975144;28;20211;-74
2022/03/15 06:57:55;;;;;;;90.77;39.50;;;;;;;5.22;100.00;102886.25;4981065;28;20562;-75
2022/03/15 07:00:23;;;;;;;92.10;37.63;;;;;;;5.25;100.00;102899.16;4975552;28;20184;-75
2022/03/15 07:02:48;;;;;;;108.23;37.67;;;;;;;5.05;100.00;102891.75;4990951;28;20240;-74
2022/03/15 07:05:14;;;;;;;74.80;36.93;;;;;;;5.26;100.00;102890.78;4992607;28;20244;-74
2022/03/15 07:07:39;;;;;;;79.13;36.03;;;;;;;5.33;100.00;102892.09;4992627;28;20176;-75
2022/03/15 07:10:06;;;;;;;79.90;35.10;;;;;;;5.04;100.00;102894.16;4992352;28;20238;-74
2022/03/15 07:12:32;;;;;;;68.13;33.27;;;;;;;5.10;100.00;102890.41;4992537;28;20218;-76
2022/03/15 07:15:00;;;;;;;90.27;34.90;;;;;;;5.07;100.00;102899.47;4992307;28;20281;-76
2022/03/15 07:17:26;;;;;;;118.27;35.33;;;;;;;4.96;100.00;102896.13;4992385;28;20271;-75
2022/03/15 07:19:51;;;;;;;91.73;34.23;;;;;;;5.02;100.00;102900.78;4992140;28;20283;-75
2022/03/15 07:22:16;;;;;;;80.30;36.73;;;;;;;5.04;100.00;102904.31;4990930;28;20242;-76
2022/03/15 07:24:42;;;;;;;79.97;34.93;;;;;;;5.13;100.00;102900.81;4990879;28;20211;-76
2022/03/15 07:27:07;;;;;;;82.30;37.83;;;;;;;5.17;100.00;102905.34;4992227;28;20243;-75
2022/03/15 07:29:32;;;;;;;88.97;34.00;;;;;;;5.18;100.00;102903.69;4991967;28;20215;-75
2022/03/15 07:31:58;;;;;;;64.00;33.03;;;;;;;5.24;100.00;102906.66;4992089;28;20176;-75
2022/03/15 07:34:23;;;;;;;83.60;32.23;;;;;;;5.15;100.00;102904.34;4990721;28;20717;-75
2022/03/15 07:36:49;;;;;;;55.13;31.87;;;;;;;5.28;100.00;102904.47;4992046;28;20192;-75
2022/03/15 07:39:14;;;;;;;92.80;30.60;;;;;;;5.08;100.00;102904.66;4992076;28;20202;-74
2022/03/15 07:41:40;;;;;;;73.23;30.80;;;;;;;5.23;100.00;102903.25;4967967;28;20258;-75
2022/03/15 07:44:08;;;;;;;50.13;30.33;;;;;;;5.18;100.00;102912.19;4980129;28;20262;-74
2022/03/15 07:46:34;;;;;;;54.67;29.20;;;;;;;5.15;100.00;102901.78;4982762;28;20431;-74
2022/03/15 07:48:59;;;;;;;53.17;26.97;;;;;;;5.16;100.00;102900.16;4973540;28;20189;-74
2022/03/15 07:51:25;;;;;;;49.27;27.30;;;;;;;5.22;100.00;102901.50;4988985;28;20188;-73
2022/03/15 07:53:50;;;;;;;53.53;27.40;;;;;;;5.29;100.00;102900.28;4967025;28;20222;-74
2022/03/15 07:56:17;;;;;;;41.03;26.87;;;;;;;5.33;100.00;102905.69;4975444;28;20196;-75
2022/03/15 07:58:43;;;;;;;38.87;25.93;;;;;;;5.43;100.00;102903.03;4996679;28;20569;-75
2022/03/15 08:01:08;;;;;;;33.67;22.30;;;;;;;5.51;100.00;102907.03;4971501;28;20188;-76
2022/03/15 08:03:33;;;;;;;29.07;21.43;;;;;;;5.58;99.21;102906.69;4971314;28;20235;-75
2022/03/15 08:05:59;;;;;;;38.03;20.43;;;;;;;5.58;98.57;102908.38;4971998;28;20193;-74
2022/03/15 08:08:25;;;;;;;38.53;21.17;;;;;;;5.53;97.71;102904.59;4971786;28;20192;-75
2022/03/15 08:10:50;;;;;;;36.40;21.50;;;;;;;5.65;97.68;102905.47;4971906;28;20535;-75
2022/03/15 08:13:15;;;;;;;30.87;20.50;;;;;;;5.74;97.38;102907.03;4970418;28;20560;-75
2022/03/15 08:15:41;;;;;;;32.70;20.47;;;;;;;5.77;96.28;102907.25;4972047;28;20646;-75
2022/03/15 08:18:06;;;;;;;28.50;20.03;;;;;;;5.84;95.85;102909.47;4971697;28;20533;-75
2022/03/15 08:20:33;;;;;;;24.63;19.17;;;;;;;5.87;94.99;102906.28;4971674;28;20212;-75
2022/03/15 08:22:59;;;;;;;27.53;18.67;;;;;;;5.91;94.99;102906.63;4971582;28;20208;-75
2022/03/15 08:25:25;;;;;;;25.30;18.27;;;;;;;5.95;94.22;102895.84;4971516;28;20208;-76
2022/03/15 08:27:50;;;;;;;27.77;18.70;;;;;;;5.94;93.07;102900.88;4971277;28;20254;-76
2022/03/15 08:30:16;;;;;;;23.13;18.03;;;;;;;5.89;92.52;102894.56;4971764;28;20187;-75
2022/03/15 08:32:41;;;;;;;23.47;19.07;;;;;;;6.02;92.61;102890.44;4986445;28;20605;-74
2022/03/15 08:35:07;;;;;;;28.73;19.50;;;;;;;6.04;92.15;102896.50;4970098;28;20628;-75
2022/03/15 08:37:34;;;;;;;23.93;19.13;;;;;;;6.20;91.89;102888.28;4971572;28;20220;-75
2022/03/15 08:40:00;;;;;;;27.97;19.20;;;;;;;6.27;91.97;102888.81;4971325;28;20195;-75
2022/03/15 08:42:26;;;;;;;24.53;19.80;;;;;;;6.33;91.52;102893.47;4960431;28;20327;-75
2022/03/15 08:44:51;;;;;;;26.80;20.17;;;;;;;6.31;91.94;102880.63;4971147;28;20299;-76
2022/03/15 08:47:17;;;;;;;28.00;20.57;;;;;;;6.40;91.53;102880.41;4971413;28;20224;-75
2022/03/15 08:49:43;;;;;;;27.90;21.30;;;;;;;6.43;91.40;102878.03;4971111;28;20247;-75
2022/03/15 08:52:10;;;;;;;28.00;20.63;;;;;;;6.51;92.51;102872.72;4971395;28;20216;-75
2022/03/15 08:54:37;;;;;;;30.43;20.67;;;;;;;6.53;92.59;102876.25;4994778;28;20216;-74
2022/03/15 08:57:03;;;;;;;32.80;22.73;;;;;;;6.63;91.75;102872.66;4978845;28;20200;-76
2022/03/15 08:59:29;;;;;;;31.10;22.07;;;;;;;6.67;92.27;102875.50;4969645;28;20726;-75
2022/03/15 09:01:54;;;;;;;29.20;22.20;;;;;;;6.84;92.43;102874.97;4970600;28;20295;-75
2022/03/15 09:04:19;;;;;;;29.77;20.63;;;;;;;7.01;91.20;102876.97;4970953;28;20691;-75
2022/03/15 09:06:45;;;;;;;22.83;17.90;;;;;;;7.03;90.65;102875.41;4969554;28;20197;-75
2022/03/15 09:09:10;;;;;;;24.23;17.47;;;;;;;7.09;89.06;102870.72;4970725;28;20239;-76
2022/03/15 09:11:35;;;;;;;23.37;18.27;;;;;;;7.06;88.96;102874.72;4970849;28;20176;-77
2022/03/15 09:14:01;;;;;;;26.67;19.57;;;;;;;7.06;88.79;102877.28;4970577;28;20220;-74
2022/03/15 09:16:28;;;;;;;26.17;20.30;;;;;;;7.12;89.55;102870.03;4970828;28;20224;-74
2022/03/15 09:18:53;;;;;;;28.50;21.20;;;;;;;6.96;89.63;102865.59;4970608;28;20336;-74
2022/03/15 09:21:19;;;;;;;28.00;19.80;;;;;;;7.14;90.53;102863.41;4970694;28;20670;-75
2022/03/15 09:23:45;;;;;;;29.90;20.53;;;;;;;7.31;89.41;102860.25;4970565;28;20243;-74
2022/03/15 09:26:11;;;;;;;26.80;19.57;;;;;;;7.48;88.54;102860.56;4969321;28;20216;-75
2022/03/15 09:28:37;;;;;;;23.20;18.97;;;;;;;7.64;88.78;102847.16;4969196;28;20204;-74
2022/03/15 09:31:03;;;;;;;28.80;20.43;;;;;;;7.90;88.11;102847.09;4970674;28;20264;-74
2022/03/15 09:33:29;;;;;;;24.67;18.87;;;;;;;8.07;87.25;102849.88;4970623;28;20649;-74
2022/03/15 09:35:55;;;;;;;22.03;18.23;;;;;;;8.03;86.18;102850.50;4970756;28;20352;-76
2022/03/15 09:38:21;;;;;;;26.90;18.23;;;;;;;8.17;86.20;102847.13;4970486;28;20196;-75
2022/03/15 09:40:52;;;;;;;23.97;18.37;;;;;;;8.11;85.61;102856.06;4969105;28;20204;-74
2022/03/15 09:43:23;;;;;;;22.33;17.80;;;;;;;8.68;84.13;102852.84;4957114;28;20240;-74
2022/03/15 09:45:51;;;;;;;23.63;17.70;;;;;;;8.70;83.18;102858.91;4972029;28;20203;-74
2022/03/15 09:48:24;;;;;;;24.30;18.97;;;;;;;8.85;84.19;102858.94;4989774;28;20597;-74
2022/03/15 09:50:51;;;;;;;24.33;18.07;;;;;;;9.07;83.60;102842.38;4989889;28;20223;-74
2022/03/15 09:53:18;;;;;;;21.63;17.43;;;;;;;8.96;82.67;102843.44;4989704;28;20188;-76
2022/03/15 09:55:45;;;;;;;22.50;16.77;;;;;;;8.89;81.66;102841.31;4963663;28;21088;-75
2022/03/15 09:58:12;;;;;;;21.90;17.23;;;;;;;8.98;83.07;102836.72;4959868;28;20193;-75
2022/03/15 10:00:38;;;;;;;22.87;17.60;;;;;;;9.19;82.34;102830.28;4950729;28;20181;-75
2022/03/15 10:03:04;;;;;;;21.83;16.93;;;;;;;9.32;81.69;102824.19;4949476;29;20217;-75
2022/03/15 10:05:29;;;;;;;21.97;16.97;;;;;;;9.43;81.90;102816.31;4950480;28;20210;-75
2022/03/15 10:07:55;;;;;;;20.07;16.60;;;;;;;9.51;80.55;102815.09;4951024;28;20201;-76
2022/03/15 10:10:20;;;;;;;20.70;17.57;;;;;;;9.37;81.75;102803.22;4950794;28;20248;-76
2022/03/15 10:12:46;;;;;;;21.13;17.20;;;;;;;9.57;80.54;102806.84;4949681;28;20683;-75
2022/03/15 10:15:17;;;;;;;23.57;16.53;;;;;;;9.90;80.26;102799.31;4956124;28;20230;-75
2022/03/15 10:17:55;;;;;;;18.33;14.93;;;;;;;10.06;79.91;102794.25;4946475;29;20233;-75
2022/03/15 10:20:28;;;;;;;20.53;15.40;;;;;;;10.30;77.05;102798.09;4949645;29;20196;-75
2022/03/15 10:23:02;;;;;;;17.20;14.43;;;;;;;10.60;76.59;102797.09;4955140;28;20582;-76
2022/03/15 10:25:30;;;;;;;16.63;14.00;;;;;;;10.96;74.77;102793.78;4987932;28;20291;-76
2022/03/15 10:27:58;;;;;;;15.73;13.70;;;;;;;11.18;73.56;102786.34;4973978;28;20189;-76
2022/03/15 10:30:25;;;;;;;19.00;14.80;;;;;;;11.31;73.91;102791.25;4973715;28;20192;-76
2022/03/15 10:32:51;;;;;;;19.20;13.60;;;;;;;11.03;73.73;102798.44;4972648;28;20165;-75
2022/03/15 10:35:25;;;;;;;18.83;14.87;;;;;;;10.62;75.16;102790.38;4972359;28;20271;-75
2022/03/15 10:37:52;;;;;;;17.73;14.20;;;;;;;10.65;75.63;102784.53;4972618;28;20672;-75
2022/03/15 10:40:19;;;;;;;17.60;13.77;;;;;;;10.69;74.83;102784.72;4973579;28;20173;-75
2022/03/15 10:42:46;;;;;;;17.50;13.43;;;;;;;11.11;74.35;102775.72;4973737;28;20260;-75
2022/03/15 10:45:14;;;;;;;18.90;14.23;;;;;;;11.28;74.45;102780.84;4973745;28;20200;-76
2022/03/15 10:47:48;;;;;;;17.87;15.17;;;;;;;11.18;74.16;102777.75;4973894;28;20187;-76
2022/03/15 10:50:13;;;;;;;17.67;14.03;;;;;;;11.11;74.18;102778.28;4973737;28;20255;-75
2022/03/15 10:52:41;;;;;;;16.60;14.40;;;;;;;11.03;74.93;102777.03;4972588;28;20724;-75
2022/03/15 10:55:25;;;;;;;17.53;14.70;;;;;;;10.66;76.26;102778.59;4980096;28;20246;-75
2022/03/15 10:58:05;;;;;;;16.97;13.30;;;;;;;11.05;75.31;102771.16;4993058;28;20183;-75
2022/03/15 11:00:35;;;;;;;16.90;14.00;;;;;;;11.40;75.24;102773.72;4992833;28;20483;-76
2022/03/15 11:03:02;;;;;;;16.90;13.10;;;;;;;11.58;74.10;102756.63;4992778;28;20259;-75
2022/03/15 11:05:34;;;;;;;16.93;14.07;;;;;;;11.52;73.62;102751.19;4992441;28;20202;-75
2022/03/15 11:08:04;;;;;;;19.83;14.23;;;;;;;11.40;74.37;102750.66;4991341;28;20176;-75
2022/03/15 11:10:30;;;;;;;18.40;14.37;;;;;;;11.44;73.88;102743.97;4972337;28;20203;-75